Time;durP1;ratioP1;P1;durP2;ratioP2;P2;SDS_P1;SDS_P2;PMS_P1;PMS_P2;Temp;Humidity;BMP_temperature;BMP_pressure;BME280_temperature;BME280_humidity;BME280_pressure;Samples;Min_cycle;Max_cycle;Signal;HPM_P1;HPM_P2
2021/12/03 00:01:25;;;;;;;4.17;1.00;;;-0.20;99.90;;;;;;5054038;28;20119;-80
2021/12/03 00:03:51;;;;;;;7.07;1.07;;;0.20;99.90;;;;;;5054800;28;20529;-80
2021/12/03 00:06:17;;;;;;;3.80;1.53;;;0.40;99.90;;;;;;5037798;28;20051;-80
2021/12/03 00:08:43;;;;;;;5.27;0.60;;;0.70;99.90;;;;;;5021111;28;20515;-87
2021/12/03 00:11:11;;;;;;;4.80;1.10;;;0.90;99.90;;;;;;5037545;28;20044;-87
2021/12/03 00:13:37;;;;;;;6.00;1.00;;;0.80;99.90;;;;;;5021409;28;20052;-87
2021/12/03 00:16:03;;;;;;;3.87;0.63;;;0.90;99.90;;;;;;5037828;28;20049;-87
2021/12/03 00:18:30;;;;;;;5.43;0.67;;;0.90;99.90;;;;;;5020970;28;20049;-87
2021/12/03 00:20:56;;;;;;;3.67;0.50;;;1.00;99.90;;;;;;5054398;28;20052;-87
2021/12/03 00:23:28;;;;;;;2.47;0.73;;;1.10;99.90;;;;;;5037586;28;20510;-81
2021/12/03 00:26:00;;;;;;;6.13;0.60;;;1.00;99.90;;;;;;5054137;28;20146;-81
2021/12/03 00:28:29;;;;;;;4.93;1.20;;;1.10;99.90;;;;;;5038535;28;20503;-88
2021/12/03 00:30:56;;;;;;;5.60;0.80;;;1.10;99.90;;;;;;5037350;28;20118;-87
2021/12/03 00:33:22;;;;;;;4.60;0.60;;;0.90;99.90;;;;;;5021004;28;20051;-81
2021/12/03 00:35:48;;;;;;;3.57;0.50;;;1.00;99.90;;;;;;5020698;28;20037;-80
2021/12/03 00:38:15;;;;;;;2.13;0.70;;;1.10;99.90;;;;;;5053445;28;20519;-81
2021/12/03 00:40:41;;;;;;;6.73;1.13;;;0.90;99.90;;;;;;5053629;28;20049;-87
2021/12/03 00:43:08;;;;;;;3.13;1.27;;;0.90;99.90;;;;;;5037169;28;20041;-88
2021/12/03 00:45:34;;;;;;;3.80;0.53;;;1.00;99.90;;;;;;5053740;28;20529;-87
2021/12/03 00:48:01;;;;;;;2.43;0.83;;;1.00;99.90;;;;;;5053423;28;20122;-88
2021/12/03 00:50:28;;;;;;;11.70;1.40;;;0.90;99.90;;;;;;5020705;28;20033;-87
2021/12/03 00:52:55;;;;;;;7.17;0.93;;;1.00;99.90;;;;;;5053694;28;20094;-86
2021/12/03 00:55:23;;;;;;;6.77;0.97;;;0.90;99.90;;;;;;5053673;28;20057;-87
2021/12/03 00:57:49;;;;;;;5.70;1.63;;;0.90;99.90;;;;;;5053266;28;20087;-87
2021/12/03 01:00:25;;;;;;;5.47;1.00;;;1.00;99.90;;;;;;5036805;28;20680;-81
2021/12/03 01:02:54;;;;;;;5.47;1.30;;;0.70;99.90;;;;;;5053220;28;20041;-80
2021/12/03 01:05:21;;;;;;;4.87;1.13;;;0.70;99.90;;;;;;5036718;28;20103;-86
2021/12/03 01:07:46;;;;;;;6.03;1.70;;;0.80;99.90;;;;;;5019948;28;20056;-80
2021/12/03 01:10:12;;;;;;;8.43;1.30;;;0.60;99.90;;;;;;5036577;28;20417;-84
2021/12/03 01:12:38;;;;;;;5.37;1.97;;;0.70;99.90;;;;;;5018878;28;20052;-86
2021/12/03 01:15:08;;;;;;;7.77;1.50;;;0.60;99.90;;;;;;5036583;28;20377;-80
2021/12/03 01:17:35;;;;;;;6.60;1.57;;;0.40;99.90;;;;;;5052874;28;20111;-86
2021/12/03 01:20:06;;;;;;;6.27;1.73;;;0.40;99.90;;;;;;5052815;28;20052;-87
2021/12/03 01:22:32;;;;;;;4.33;1.17;;;0.40;99.90;;;;;;5020422;28;20049;-80
2021/12/03 01:24:59;;;;;;;7.23;1.20;;;0.20;99.90;;;;;;5036241;28;20046;-80
2021/12/03 01:27:25;;;;;;;4.30;1.20;;;0.30;99.90;;;;;;5052702;28;20206;-80
2021/12/03 01:29:50;;;;;;;2.77;0.70;;;0.20;99.90;;;;;;5019675;28;20041;-87
2021/12/03 01:32:16;;;;;;;3.43;1.23;;;0.40;99.90;;;;;;5019756;28;20048;-80
2021/12/03 01:34:42;;;;;;;10.40;1.20;;;0.40;99.90;;;;;;5052651;28;20123;-87
2021/12/03 01:37:08;;;;;;;5.53;1.23;;;0.40;99.90;;;;;;5036078;28;20474;-86
2021/12/03 01:39:34;;;;;;;4.13;1.27;;;0.30;99.90;;;;;;5019469;28;20136;-80
2021/12/03 01:41:59;;;;;;;5.73;1.20;;;0.40;99.90;;;;;;5036008;28;20403;-87
2021/12/03 01:44:25;;;;;;;9.70;1.20;;;0.20;99.90;;;;;;5036015;28;20041;-80
2021/12/03 01:46:51;;;;;;;9.90;1.60;;;0.50;99.90;;;;;;5052426;28;20124;-87
2021/12/03 01:49:17;;;;;;;5.73;1.03;;;0.50;99.90;;;;;;5035726;28;20083;-86
2021/12/03 01:51:43;;;;;;;3.30;0.70;;;0.30;99.90;;;;;;5052169;28;20037;-83
2021/12/03 01:54:09;;;;;;;1.97;0.80;;;0.50;99.90;;;;;;5052176;28;20041;-87
2021/12/03 01:56:37;;;;;;;2.70;0.70;;;0.40;99.90;;;;;;5018910;28;20051;-87
2021/12/03 01:59:03;;;;;;;7.73;1.40;;;0.60;99.90;;;;;;5052219;28;20041;-87
2021/12/03 02:01:29;;;;;;;2.93;0.80;;;0.60;99.90;;;;;;5036125;28;20547;-80
2021/12/03 02:03:57;;;;;;;6.13;1.33;;;0.50;99.90;;;;;;5035362;28;20119;-86
2021/12/03 02:06:25;;;;;;;2.53;0.77;;;0.60;99.90;;;;;;5035584;28;20067;-82
2021/12/03 02:08:51;;;;;;;4.57;1.00;;;0.50;99.90;;;;;;5035698;28;20164;-87
2021/12/03 02:11:18;;;;;;;6.13;0.97;;;0.70;99.90;;;;;;5035854;28;20064;-80
2021/12/03 02:13:44;;;;;;;3.60;0.90;;;0.70;99.90;;;;;;5035614;28;20037;-81
2021/12/03 02:16:11;;;;;;;5.17;1.03;;;0.60;99.90;;;;;;5019154;28;20606;-88
2021/12/03 02:18:38;;;;;;;4.97;1.00;;;0.80;99.90;;;;;;5018709;28;20079;-88
2021/12/03 02:21:06;;;;;;;7.13;1.60;;;0.60;99.90;;;;;;5019013;28;20041;-87
2021/12/03 02:23:32;;;;;;;11.77;1.27;;;0.80;99.90;;;;;;5034838;28;20048;-81
2021/12/03 02:25:58;;;;;;;7.07;0.90;;;0.80;99.90;;;;;;5018774;28;20048;-87
2021/12/03 02:28:26;;;;;;;3.73;1.00;;;0.60;99.90;;;;;;5051596;28;20044;-87
2021/12/03 02:30:53;;;;;;;9.47;1.03;;;0.80;99.90;;;;;;5035256;28;20049;-86
2021/12/03 02:33:19;;;;;;;5.73;1.93;;;0.70;99.90;;;;;;5051831;28;20506;-80
2021/12/03 02:35:46;;;;;;;4.33;0.90;;;0.60;99.90;;;;;;5035008;28;20128;-80
2021/12/03 02:38:16;;;;;;;5.77;1.27;;;0.60;99.90;;;;;;5034870;28;20048;-86
2021/12/03 02:40:43;;;;;;;8.30;1.10;;;0.50;99.90;;;;;;5051656;28;20130;-87
2021/12/03 02:43:08;;;;;;;9.67;1.30;;;0.40;99.90;;;;;;5051382;28;20068;-86
2021/12/03 02:45:34;;;;;;;9.10;1.70;;;0.40;99.90;;;;;;5035208;28;20045;-80
2021/12/03 02:48:04;;;;;;;7.20;1.07;;;0.40;99.90;;;;;;5051429;28;20040;-87
2021/12/03 02:50:30;;;;;;;8.03;1.03;;;0.50;99.90;;;;;;5051746;28;20412;-86
2021/12/03 02:52:56;;;;;;;6.50;1.17;;;0.40;99.90;;;;;;5034889;28;20037;-87
2021/12/03 02:55:23;;;;;;;9.20;1.17;;;0.60;99.90;;;;;;5051483;28;20041;-85
2021/12/03 02:57:49;;;;;;;3.70;0.70;;;0.60;99.90;;;;;;5034618;28;20106;-87
2021/12/03 03:00:18;;;;;;;2.73;0.80;;;0.50;99.90;;;;;;5034825;28;20052;-80
2021/12/03 03:02:44;;;;;;;3.17;1.30;;;0.80;99.90;;;;;;5034672;28;20052;-81
2021/12/03 03:05:12;;;;;;;4.60;1.37;;;0.90;99.90;;;;;;5051313;28;20049;-80
2021/12/03 03:07:37;;;;;;;7.17;1.07;;;0.60;99.90;;;;;;5051107;28;20063;-87
2021/12/03 03:10:08;;;;;;;5.90;1.30;;;0.70;99.90;;;;;;5034556;28;20049;-80
2021/12/03 03:12:34;;;;;;;7.63;1.00;;;0.70;99.90;;;;;;5035054;28;20052;-80
2021/12/03 03:15:01;;;;;;;3.23;1.00;;;0.90;99.90;;;;;;5034566;28;20045;-87
2021/12/03 03:17:29;;;;;;;8.67;1.80;;;0.70;99.90;;;;;;5051089;28;20044;-81
2021/12/03 03:19:56;;;;;;;7.07;1.53;;;0.70;99.90;;;;;;5051156;28;20053;-87
2021/12/03 03:22:23;;;;;;;9.30;1.30;;;0.70;99.90;;;;;;5034688;28;20060;-87
2021/12/03 03:24:50;;;;;;;3.47;1.13;;;0.80;99.90;;;;;;5018150;28;20106;-80
2021/12/03 03:27:18;;;;;;;9.33;1.60;;;0.70;99.90;;;;;;5034433;28;20037;-87
2021/12/03 03:29:45;;;;;;;2.73;1.20;;;0.80;99.90;;;;;;5034382;28;20049;-87
2021/12/03 03:32:11;;;;;;;5.53;1.80;;;0.80;99.90;;;;;;5034825;28;20522;-80
2021/12/03 03:34:37;;;;;;;7.87;2.73;;;0.80;99.90;;;;;;5051882;28;20128;-83
2021/12/03 03:37:04;;;;;;;5.67;1.97;;;0.80;99.90;;;;;;5055077;28;20041;-80
2021/12/03 03:39:29;;;;;;;4.87;1.80;;;1.00;99.90;;;;;;5054842;28;20091;-87
2021/12/03 03:41:55;;;;;;;6.20;2.13;;;1.00;99.90;;;;;;5038031;28;20041;-81
2021/12/03 03:44:22;;;;;;;4.37;1.70;;;0.90;99.90;;;;;;5054547;28;20040;-81
2021/12/03 03:46:51;;;;;;;5.30;2.10;;;0.90;99.90;;;;;;5054987;28;20045;-84
2021/12/03 03:49:17;;;;;;;8.27;2.20;;;0.90;99.90;;;;;;5038038;28;20044;-80
2021/12/03 03:51:43;;;;;;;6.50;2.00;;;0.80;99.90;;;;;;5054872;28;20045;-87
2021/12/03 03:54:09;;;;;;;9.80;2.50;;;1.00;99.90;;;;;;5038144;28;20045;-86
2021/12/03 03:56:35;;;;;;;4.23;2.30;;;0.90;99.90;;;;;;5037974;28;20044;-81
2021/12/03 03:59:00;;;;;;;8.17;3.40;;;1.20;99.90;;;;;;5037789;28;20056;-80
2021/12/03 04:01:27;;;;;;;9.27;2.27;;;1.00;99.90;;;;;;5038016;28;20127;-81
2021/12/03 04:03:53;;;;;;;5.27;3.40;;;1.00;99.90;;;;;;5037643;28;20045;-87
2021/12/03 04:06:19;;;;;;;7.90;4.37;;;1.20;99.90;;;;;;5037964;28;20045;-88
2021/12/03 04:08:47;;;;;;;10.47;3.53;;;1.20;99.90;;;;;;5037642;28;20143;-80
2021/12/03 04:11:16;;;;;;;18.07;11.37;;;1.10;99.90;;;;;;5054338;28;20037;-86
2021/12/03 04:13:43;;;;;;;19.57;9.17;;;1.20;99.90;;;;;;5054161;28;20045;-86
2021/12/03 04:16:09;;;;;;;18.67;9.53;;;1.20;99.90;;;;;;5021513;28;20041;-81
2021/12/03 04:18:35;;;;;;;18.33;10.10;;;1.20;99.90;;;;;;5053930;28;20049;-81
2021/12/03 04:21:00;;;;;;;10.93;7.23;;;1.20;99.90;;;;;;5037669;28;20114;-87
2021/12/03 04:23:26;;;;;;;21.60;13.77;;;1.20;99.90;;;;;;5053954;28;20048;-87
2021/12/03 04:25:52;;;;;;;27.23;17.10;;;1.20;99.90;;;;;;5037439;28;20407;-86
2021/12/03 04:28:19;;;;;;;15.73;8.13;;;1.10;99.90;;;;;;5037203;28;20045;-88
2021/12/03 04:30:46;;;;;;;14.93;9.90;;;1.20;99.90;;;;;;5053926;28;20079;-88
2021/12/03 04:33:11;;;;;;;26.17;17.10;;;1.20;99.90;;;;;;5053708;28;20067;-89
2021/12/03 04:35:38;;;;;;;28.77;17.03;;;1.10;99.90;;;;;;5053837;28;20041;-85
2021/12/03 04:38:04;;;;;;;19.67;11.87;;;1.10;99.90;;;;;;5053502;28;20049;-88
2021/12/03 04:40:33;;;;;;;34.83;21.93;;;1.10;99.90;;;;;;5037108;28;20044;-81
2021/12/03 04:42:59;;;;;;;42.17;23.23;;;1.00;99.90;;;;;;5053575;28;20043;-82
2021/12/03 04:45:27;;;;;;;36.03;21.63;;;1.10;99.90;;;;;;5036713;28;20051;-81
2021/12/03 04:47:55;;;;;;;26.27;17.27;;;0.90;99.90;;;;;;5053505;28;20396;-81
2021/12/03 04:50:25;;;;;;;37.10;21.07;;;0.90;99.90;;;;;;5037747;28;20092;-81
2021/12/03 04:52:52;;;;;;;24.57;16.10;;;1.00;99.90;;;;;;5053647;28;20037;-88
2021/12/03 04:55:19;;;;;;;24.47;16.37;;;1.10;99.90;;;;;;5053447;28;20056;-88
2021/12/03 04:57:44;;;;;;;33.33;19.53;;;1.10;99.90;;;;;;5036630;28;20053;-88
2021/12/03 05:00:16;;;;;;;33.97;22.80;;;1.10;99.90;;;;;;5036984;28;20053;-88
2021/12/03 05:02:42;;;;;;;26.80;18.53;;;1.00;99.90;;;;;;5053446;28;20045;-81
2021/12/03 05:05:08;;;;;;;26.43;15.10;;;1.10;99.90;;;;;;5036937;28;20110;-89
2021/12/03 05:10:07;;;;;;;25.53;16.43;;;1.20;99.90;;;;;;5053181;28;20049;-81
2021/12/03 05:12:33;;;;;;;17.97;12.27;;;1.10;99.90;;;;;;5036537;28;20045;-86
2021/12/03 05:14:59;;;;;;;16.30;9.80;;;1.10;99.90;;;;;;5036670;28;20392;-89
2021/12/03 05:17:25;;;;;;;15.17;9.30;;;1.10;99.90;;;;;;5053191;28;20045;-81
2021/12/03 05:19:51;;;;;;;31.47;21.63;;;1.00;99.90;;;;;;5036520;28;20059;-82
2021/12/03 05:22:18;;;;;;;27.87;19.30;;;1.00;99.90;;;;;;5052813;28;20041;-89
2021/12/03 05:24:46;;;;;;;26.70;18.13;;;1.10;99.90;;;;;;5036235;28;20057;-88
2021/12/03 05:27:17;;;;;;;29.07;18.27;;;1.20;99.90;;;;;;5052792;28;20045;-82
2021/12/03 05:29:45;;;;;;;25.00;17.97;;;1.40;99.90;;;;;;5036222;28;20041;-82
2021/12/03 05:32:11;;;;;;;24.27;16.37;;;1.10;99.90;;;;;;5036354;28;20047;-88
2021/12/03 05:34:38;;;;;;;21.87;9.93;;;1.20;99.90;;;;;;5019642;28;20041;-88
2021/12/03 05:37:05;;;;;;;19.43;11.67;;;1.20;99.90;;;;;;5035781;28;20051;-82
2021/12/03 05:39:32;;;;;;;12.80;8.00;;;1.20;99.90;;;;;;5036225;28;20048;-89
2021/12/03 05:41:58;;;;;;;25.33;17.73;;;1.10;99.90;;;;;;5003174;28;20048;-88
2021/12/03 05:44:23;;;;;;;23.10;14.57;;;1.20;99.90;;;;;;5035867;28;20041;-89
2021/12/03 05:46:49;;;;;;;25.20;17.27;;;1.00;99.90;;;;;;5052623;28;20041;-81
2021/12/03 05:49:15;;;;;;;25.77;17.83;;;1.20;99.90;;;;;;5019241;28;20076;-81
2021/12/03 05:51:41;;;;;;;22.77;15.63;;;0.90;99.90;;;;;;5052282;28;20041;-88
2021/12/03 05:54:06;;;;;;;17.87;11.60;;;1.20;99.90;;;;;;5019204;28;20464;-84
2021/12/03 05:56:32;;;;;;;16.37;11.17;;;1.10;99.90;;;;;;5019316;28;20518;-84
2021/12/03 05:58:58;;;;;;;23.50;9.03;;;1.10;99.90;;;;;;5035249;28;20045;-81
2021/12/03 06:01:24;;;;;;;24.63;16.53;;;1.20;99.90;;;;;;5051966;28;20384;-89
2021/12/03 06:03:49;;;;;;;20.40;15.57;;;1.10;99.90;;;;;;5035414;28;20400;-81
2021/12/03 06:06:15;;;;;;;21.50;14.13;;;1.00;99.90;;;;;;5052173;28;20171;-88
2021/12/03 06:08:42;;;;;;;22.67;16.53;;;1.10;99.90;;;;;;5018813;28;20053;-81
2021/12/03 06:11:07;;;;;;;23.13;12.20;;;1.10;99.90;;;;;;5036085;28;20048;-85
2021/12/03 06:13:38;;;;;;;12.97;9.90;;;1.20;99.90;;;;;;5052242;28;20138;-81
2021/12/03 06:16:05;;;;;;;16.47;9.00;;;1.20;99.90;;;;;;5035802;28;20441;-81
2021/12/03 06:18:30;;;;;;;28.17;19.57;;;1.20;99.90;;;;;;5018696;28;20087;-89
2021/12/03 06:20:56;;;;;;;23.17;16.87;;;1.30;99.90;;;;;;5051979;28;20077;-82
2021/12/03 06:23:22;;;;;;;19.60;12.93;;;1.20;99.90;;;;;;5035243;28;20107;-82
2021/12/03 06:25:47;;;;;;;20.33;13.47;;;1.40;99.90;;;;;;5035311;28;20515;-81
2021/12/03 06:28:13;;;;;;;14.40;7.53;;;1.30;99.90;;;;;;5034981;28;20037;-84
2021/12/03 06:30:39;;;;;;;17.90;11.63;;;1.50;99.90;;;;;;5035218;28;20052;-90
2021/12/03 06:33:05;;;;;;;30.10;20.83;;;1.60;99.90;;;;;;5035069;28;20057;-83
2021/12/03 06:35:31;;;;;;;21.70;13.77;;;1.90;99.90;;;;;;5035336;28;20072;-89
2021/12/03 06:37:57;;;;;;;25.63;17.23;;;1.40;99.90;;;;;;5034916;28;20128;-89
2021/12/03 06:40:25;;;;;;;28.27;18.40;;;1.60;99.90;;;;;;5035140;28;20542;-90
2021/12/03 06:42:51;;;;;;;38.00;22.93;;;1.70;99.90;;;;;;5034935;28;20037;-82
2021/12/03 06:45:18;;;;;;;37.10;24.17;;;1.30;99.90;;;;;;5051716;28;20056;-89
2021/12/03 06:47:44;;;;;;;26.93;18.97;;;1.60;99.90;;;;;;5035072;28;20127;-83
2021/12/03 06:50:13;;;;;;;31.30;20.40;;;1.30;99.90;;;;;;5018637;28;20088;-82
2021/12/03 06:52:41;;;;;;;33.17;20.03;;;1.30;99.90;;;;;;5018675;28;20045;-89
2021/12/03 06:55:10;;;;;;;28.30;18.37;;;1.30;99.90;;;;;;5035049;28;20049;-88
2021/12/03 06:57:36;;;;;;;18.17;12.17;;;1.40;99.90;;;;;;5034176;28;20530;-89
2021/12/03 07:00:05;;;;;;;14.23;9.80;;;1.40;99.90;;;;;;5018330;28;20124;-82
2021/12/03 07:02:30;;;;;;;18.03;13.30;;;1.60;99.90;;;;;;5034604;28;20120;-82
2021/12/03 07:04:56;;;;;;;20.23;13.73;;;1.40;99.90;;;;;;5018195;28;20128;-82
2021/12/03 07:07:22;;;;;;;18.13;13.67;;;1.50;99.90;;;;;;5034532;28;20053;-81
2021/12/03 07:09:48;;;;;;;20.93;14.70;;;1.50;99.90;;;;;;5037865;28;20061;-88
2021/12/03 07:12:15;;;;;;;20.60;14.90;;;1.70;99.90;;;;;;5022345;28;20068;-88
2021/12/03 07:14:41;;;;;;;22.43;15.63;;;1.60;99.90;;;;;;5022406;28;20041;-89
2021/12/03 07:17:07;;;;;;;20.80;14.13;;;1.90;99.90;;;;;;5038456;28;20131;-82
2021/12/03 07:19:33;;;;;;;24.37;15.50;;;1.80;99.90;;;;;;5022147;28;20036;-88
2021/12/03 07:22:00;;;;;;;24.63;13.57;;;2.10;99.90;;;;;;5038510;28;20053;-89
2021/12/03 07:24:25;;;;;;;17.87;11.47;;;1.80;99.90;;;;;;5055280;28;20045;-81
2021/12/03 07:26:51;;;;;;;16.03;10.37;;;1.80;99.90;;;;;;5055157;28;20131;-89
2021/12/03 07:29:17;;;;;;;20.47;9.73;;;1.90;99.90;;;;;;5055238;28;20044;-88
2021/12/03 07:31:44;;;;;;;22.63;12.33;;;2.00;99.90;;;;;;5054922;28;20045;-88
2021/12/03 07:34:11;;;;;;;21.60;10.27;;;2.10;99.90;;;;;;5021898;28;20063;-87
2021/12/03 07:36:37;;;;;;;11.60;6.57;;;2.10;99.90;;;;;;5054775;28;20049;-80
2021/12/03 07:39:03;;;;;;;11.85;4.72;;;2.20;99.90;;;;;;5038156;28;20041;-82
2021/12/03 07:41:29;;;;;;;9.70;5.40;;;2.80;99.90;;;;;;5021779;28;20132;-81
2021/12/03 07:43:55;;;;;;;12.67;5.93;;;2.20;99.90;;;;;;5038076;28;20474;-86
2021/12/03 07:46:21;;;;;;;12.45;4.38;;;2.40;99.90;;;;;;5054878;28;20122;-88
2021/12/03 07:48:47;;;;;;;8.20;4.60;;;2.40;99.90;;;;;;5021502;28;20137;-81
2021/12/03 07:51:15;;;;;;;8.70;4.55;;;2.30;99.90;;;;;;5037942;28;20041;-81
2021/12/03 07:53:41;;;;;;;7.13;4.13;;;2.30;99.90;;;;;;5054746;28;20553;-81
2021/12/03 07:56:08;;;;;;;12.45;4.88;;;2.40;99.90;;;;;;5054655;28;20080;-81
2021/12/03 07:58:34;;;;;;;7.45;4.28;;;2.60;99.90;;;;;;5037881;28;20115;-88
2021/12/03 08:01:00;;;;;;;8.88;4.43;;;2.60;99.90;;;;;;5037909;28;20132;-82
2021/12/03 08:03:26;;;;;;;8.13;3.05;;;2.40;99.90;;;;;;5038074;28;20128;-88
2021/12/03 08:05:52;;;;;;;15.85;5.85;;;2.60;99.90;;;;;;5021565;28;20045;-82
2021/12/03 08:08:22;;;;;;;11.00;4.60;;;2.40;99.90;;;;;;5021144;28;20057;-81
2021/12/03 08:10:49;;;;;;;14.10;4.45;;;2.60;99.90;;;;;;5038335;28;20076;-86
2021/12/03 08:13:15;;;;;;;8.13;3.23;;;2.70;99.90;;;;;;5054335;28;20048;-88
2021/12/03 08:15:41;;;;;;;13.25;4.55;;;2.50;99.90;;;;;;5021327;28;20088;-82
2021/12/03 08:18:07;;;;;;;6.10;3.05;;;2.50;99.90;;;;;;5021012;28;20147;-82
2021/12/03 08:20:33;;;;;;;8.73;2.55;;;2.50;99.90;;;;;;5036694;28;20041;-80
2021/12/03 08:23:00;;;;;;;8.55;3.80;;;2.60;99.90;;;;;;5053885;28;20041;-82
2021/12/03 08:25:26;;;;;;;7.22;3.72;;;2.50;99.90;;;;;;5054116;28;20159;-82
2021/12/03 08:27:53;;;;;;;11.88;3.08;;;2.50;99.90;;;;;;5054107;28;20048;-86
2021/12/03 08:30:18;;;;;;;11.75;4.78;;;2.70;99.90;;;;;;5037556;28;20392;-81
2021/12/03 08:32:44;;;;;;;7.33;4.07;;;2.70;99.90;;;;;;5020823;28;20111;-81
2021/12/03 08:35:10;;;;;;;8.98;3.13;;;2.60;99.90;;;;;;5037173;28;20048;-81
2021/12/03 08:37:37;;;;;;;13.18;3.67;;;2.60;99.90;;;;;;5053472;28;20137;-81
2021/12/03 08:40:05;;;;;;;4.35;2.30;;;2.90;99.90;;;;;;5037126;28;20045;-87
2021/12/03 08:42:31;;;;;;;10.73;4.68;;;2.70;99.90;;;;;;5053443;28;20049;-82
2021/12/03 08:44:59;;;;;;;6.35;2.85;;;2.80;99.90;;;;;;5036897;28;20381;-86
2021/12/03 08:47:25;;;;;;;10.88;2.97;;;2.90;99.90;;;;;;5053725;28;20500;-81
2021/12/03 08:49:53;;;;;;;10.25;3.05;;;3.00;99.90;;;;;;5053466;28;20045;-81
2021/12/03 08:52:32;;;;;;;8.15;3.15;;;3.30;99.90;;;;;;5020868;28;20045;-82
2021/12/03 08:54:57;;;;;;;12.57;4.32;;;2.80;99.90;;;;;;5022279;28;20380;-85
2021/12/03 08:57:25;;;;;;;10.55;4.53;;;2.90;99.90;;;;;;5053244;28;20045;-87
2021/12/03 08:59:54;;;;;;;10.73;3.92;;;2.80;99.90;;;;;;5053579;28;20045;-88
2021/12/03 09:02:20;;;;;;;12.63;3.65;;;3.00;99.90;;;;;;5053387;28;20519;-82
2021/12/03 09:04:46;;;;;;;4.70;1.80;;;3.10;99.90;;;;;;5053475;28;20480;-82
2021/12/03 09:07:13;;;;;;;9.50;5.13;;;3.10;99.90;;;;;;5036614;28;20407;-87
2021/12/03 09:09:38;;;;;;;13.48;5.32;;;3.10;99.90;;;;;;5036559;28;20135;-82
2021/12/03 09:12:04;;;;;;;11.90;4.88;;;3.10;99.90;;;;;;5036401;28;20041;-82
2021/12/03 09:14:37;;;;;;;11.07;4.43;;;2.90;99.90;;;;;;5020062;28;20128;-81
2021/12/03 09:24:59;;;;;;;17.48;7.45;;;3.00;99.90;;;;;;5038262;28;20399;-88
2021/12/03 09:27:26;;;;;;;10.65;5.18;;;3.10;99.90;;;;;;5036034;28;20048;-82
2021/12/03 09:29:54;;;;;;;15.90;6.47;;;3.20;99.90;;;;;;5036582;28;20395;-82
2021/12/03 09:32:23;;;;;;;10.85;6.10;;;3.10;99.90;;;;;;5035120;28;20052;-84
2021/12/03 09:34:49;;;;;;;15.85;5.75;;;3.30;99.90;;;;;;5036087;28;20131;-82
2021/12/03 09:37:16;;;;;;;9.98;4.63;;;3.40;99.90;;;;;;5052298;28;20053;-81
2021/12/03 09:39:44;;;;;;;10.68;4.93;;;3.20;99.90;;;;;;5052768;28;20532;-86
2021/12/03 09:42:10;;;;;;;9.18;3.95;;;3.30;99.90;;;;;;5019684;28;20045;-85
2021/12/03 09:44:44;;;;;;;18.70;6.45;;;3.20;99.90;;;;;;5036040;28;20488;-86
2021/12/03 09:47:10;;;;;;;14.80;5.68;;;3.30;99.90;;;;;;5035751;28;20102;-87
2021/12/03 09:49:38;;;;;;;18.30;6.40;;;3.40;99.90;;;;;;5035810;28;20037;-81
2021/12/03 09:54:52;;;;;;;12.23;6.88;;;3.40;99.90;;;;;;5090366;27;20687;-84
2021/12/03 09:57:45;;;;;;;9.60;6.57;;;3.30;99.90;;;;;;5072566;28;20086;-85
2021/12/03 10:00:35;;;;;;;19.48;8.00;;;3.40;99.90;;;;;;5074677;28;20055;-86
2021/12/03 10:03:18;;;;;;;15.93;6.10;;;3.40;99.90;;;;;;5088248;28;20052;-80
2021/12/03 10:11:46;;;;;;;17.60;6.13;;;3.50;99.90;;;;;;5088820;28;20098;-87
2021/12/03 10:17:56;;;;;;;12.57;5.55;;;3.60;99.90;;;;;;5073404;28;20044;-82
2021/12/03 10:49:01;;;;;;;8.30;2.80;;;3.70;99.90;;;;;;5088431;28;20135;-85
2021/12/03 10:57:15;;;;;;;19.53;4.07;;;3.60;99.90;;;;;;5073653;28;20162;-87
2021/12/03 11:00:28;;;;;;;13.90;4.73;;;3.70;99.90;;;;;;5062949;28;20051;-80
2021/12/03 11:52:32;;;;;;;10.02;3.47;;;2.70;99.90;;;;;;5045297;28;20110;-80
2021/12/03 11:58:43;;;;;;;5.07;2.20;;;2.80;99.90;;;;;;5059219;28;20052;-80
2021/12/03 12:23:50;;;;;;;13.80;4.37;;;2.60;99.90;;;;;;5072979;28;20402;-83
2021/12/03 12:48:28;;;;;;;11.80;3.10;;;3.00;99.90;;;;;;5072298;28;20072;-85
2021/12/03 14:44:27;;;;;;;6.03;2.85;;;3.70;99.90;;;;;;5074898;28;20049;-78
2021/12/03 14:50:07;;;;;;;8.90;2.70;;;3.60;99.90;;;;;;5074854;28;20556;-83
2021/12/03 14:52:46;;;;;;;8.25;2.65;;;3.70;99.90;;;;;;5074438;28;20127;-78
2021/12/03 14:55:27;;;;;;;5.72;2.10;;;3.60;99.90;;;;;;5058028;28;20067;-77
2021/12/03 14:58:01;;;;;;;8.35;2.30;;;3.70;99.90;;;;;;5074467;28;20086;-77
2021/12/03 15:00:36;;;;;;;4.55;2.35;;;3.40;99.90;;;;;;5057803;28;20102;-82
2021/12/03 15:08:28;;;;;;;9.20;2.42;;;3.40;99.90;;;;;;5074685;28;20572;-82
2021/12/03 15:27:14;;;;;;;6.80;3.25;;;3.60;99.90;;;;;;5073938;28;20045;-80
2021/12/03 15:35:17;;;;;;;8.97;3.80;;;3.30;99.90;;;;;;5074207;28;20430;-75
2021/12/03 15:37:58;;;;;;;8.27;4.47;;;3.60;99.90;;;;;;5059114;28;20044;-76
2021/12/03 15:40:52;;;;;;;4.25;3.10;;;3.50;99.90;;;;;;5059413;28;20193;-76
2021/12/03 16:10:47;;;;;;;6.00;3.28;;;3.80;99.90;;;;;;5073145;28;20059;-79
2021/12/03 16:13:27;;;;;;;7.40;4.38;;;3.70;99.90;;;;;;5042936;28;20041;-76
2021/12/03 16:53:13;;;;;;;4.70;3.60;;;4.00;99.90;;;;;;5071736;28;20086;-76
2021/12/03 16:55:40;;;;;;;4.57;3.65;;;4.00;99.90;;;;;;5056583;28;20135;-75
2021/12/03 16:58:07;;;;;;;8.75;6.22;;;3.80;99.90;;;;;;5055721;28;20040;-78
2021/12/03 17:00:37;;;;;;;9.75;7.18;;;3.90;99.90;;;;;;5055428;28;20123;-78
2021/12/03 17:08:59;;;;;;;4.90;4.18;;;3.80;99.90;;;;;;5072069;28;20052;-76
2021/12/03 17:11:50;;;;;;;5.75;4.00;;;3.90;99.90;;;;;;5057662;28;20051;-75
2021/12/03 17:15:26;;;;;;;8.75;5.35;;;3.70;99.90;;;;;;5058846;28;20048;-75
2021/12/03 17:57:42;;;;;;;5.20;4.40;;;4.00;99.90;;;;;;5071606;28;20044;-78
2021/12/03 18:00:22;;;;;;;7.50;5.15;;;3.90;99.90;;;;;;5071693;28;20376;-76
2021/12/03 18:02:51;;;;;;;7.88;5.15;;;3.80;99.90;;;;;;5054620;28;20041;-76
2021/12/03 18:08:11;;;;;;;12.18;7.63;;;4.10;99.90;;;;;;5057531;28;20147;-78
2021/12/03 18:56:06;;;;;;;16.65;11.68;;;4.20;99.90;;;;;;5058743;28;20136;-78
2021/12/03 18:58:32;;;;;;;23.63;16.88;;;4.10;99.90;;;;;;5057803;28;20048;-77
2021/12/03 19:00:58;;;;;;;9.20;6.75;;;4.10;99.90;;;;;;5057731;28;20495;-77
2021/12/03 19:08:54;;;;;;;19.17;12.95;;;4.30;99.90;;;;;;5066069;28;20071;-78
2021/12/03 19:13:47;;;;;;;13.25;8.68;;;4.10;99.90;;;;;;5074003;28;20139;-79
2021/12/03 19:16:16;;;;;;;14.32;9.15;;;4.40;99.90;;;;;;5074205;28;20122;-80
2021/12/03 19:18:45;;;;;;;11.57;8.52;;;4.20;99.90;;;;;;5074486;28;20565;-80
2021/12/03 19:21:17;;;;;;;16.33;11.57;;;4.30;99.90;;;;;;5074375;28;20462;-78
2021/12/03 19:23:43;;;;;;;12.48;8.27;;;4.10;99.90;;;;;;5074448;28;20052;-79
2021/12/03 19:26:09;;;;;;;17.63;10.50;;;4.20;99.90;;;;;;5073417;28;20137;-78
2021/12/03 19:28:36;;;;;;;14.07;9.93;;;4.20;99.90;;;;;;5057288;28;20052;-77
2021/12/03 19:31:02;;;;;;;18.08;10.88;;;4.40;99.90;;;;;;5040981;28;20048;-79
2021/12/03 19:33:28;;;;;;;26.27;17.88;;;4.40;99.90;;;;;;5074037;28;20538;-77
2021/12/03 19:35:55;;;;;;;18.55;12.77;;;4.40;99.90;;;;;;5057164;28;20147;-80
2021/12/03 19:38:20;;;;;;;16.83;10.20;;;4.20;99.90;;;;;;5073786;28;20047;-77
2021/12/03 19:41:01;;;;;;;27.90;18.17;;;4.30;99.90;;;;;;5024193;28;20427;-78
2021/12/03 19:43:34;;;;;;;30.85;19.83;;;4.20;99.90;;;;;;5074106;28;20065;-77
2021/12/03 19:46:03;;;;;;;33.38;21.67;;;4.20;99.90;;;;;;5073680;28;20044;-80
2021/12/03 19:48:39;;;;;;;26.27;16.83;;;4.30;99.90;;;;;;5057784;28;20048;-80
2021/12/03 19:51:13;;;;;;;29.67;17.27;;;4.50;99.90;;;;;;5056859;28;20040;-77
2021/12/03 19:53:45;;;;;;;35.63;21.08;;;4.30;99.90;;;;;;5073466;28;20068;-77
2021/12/03 19:56:11;;;;;;;28.95;19.27;;;4.20;99.90;;;;;;5073708;28;20411;-78
2021/12/03 19:58:37;;;;;;;35.05;21.45;;;4.30;99.90;;;;;;5056829;28;20037;-77
2021/12/03 20:01:03;;;;;;;21.50;12.23;;;4.30;99.90;;;;;;5056859;28;20040;-80
2021/12/03 20:03:28;;;;;;;37.85;21.92;;;4.20;99.90;;;;;;5040137;28;20041;-78
2021/12/03 20:05:54;;;;;;;44.67;27.08;;;4.30;99.90;;;;;;5040066;28;20063;-77
2021/12/03 20:08:21;;;;;;;53.25;29.02;;;4.20;99.90;;;;;;5023590;28;20457;-77
2021/12/03 20:10:49;;;;;;;61.30;31.90;;;4.30;99.90;;;;;;5056516;28;20036;-80
2021/12/03 20:13:21;;;;;;;37.83;21.10;;;4.20;99.90;;;;;;5072908;28;20059;-77
2021/12/03 20:16:19;;;;;;;54.15;27.23;;;4.40;99.90;;;;;;5057587;28;20407;-77
2021/12/03 20:20:59;;;;;;;35.33;20.27;;;4.30;99.90;;;;;;5072878;28;20070;-80
2021/12/03 20:26:29;;;;;;;28.88;17.58;;;4.10;99.90;;;;;;5055213;28;20056;-81
2021/12/03 20:31:29;;;;;;;43.28;25.20;;;4.20;99.90;;;;;;5072998;28;20487;-81
2021/12/03 20:38:58;;;;;;;34.50;21.70;;;4.20;99.90;;;;;;5071939;28;20139;-82
2021/12/03 20:49:22;;;;;;;26.50;16.23;;;4.30;99.90;;;;;;5072305;28;20045;-82
2021/12/03 21:10:30;;;;;;;28.50;17.23;;;4.20;99.90;;;;;;5072052;28;20045;-77
2021/12/03 21:12:57;;;;;;;46.80;23.90;;;4.50;99.90;;;;;;5072043;28;20403;-78
2021/12/03 21:15:57;;;;;;;58.50;31.95;;;4.20;99.90;;;;;;5071905;28;20052;-81
2021/12/03 21:21:07;;;;;;;42.58;23.10;;;4.20;99.90;;;;;;5072181;28;20044;-78